Time;durP1;ratioP1;P1;durP2;ratioP2;P2;SDS_P1;SDS_P2;PMS_P1;PMS_P2;Temp;Humidity;BMP_temperature;BMP_pressure;BME280_temperature;BME280_humidity;BME280_pressure;Samples;Min_cycle;Max_cycle;Signal;HPM_P1;HPM_P2
2022/05/26 00:05:17;;;;;;;4.63;1.70;;;11.10;99.90;;;;;;21176236;28;20039;-52
2022/05/26 00:15:19;;;;;;;3.97;1.35;;;11.10;99.90;;;;;;21179818;27;20035;-53
2022/05/26 00:25:22;;;;;;;5.15;1.33;;;11.20;99.90;;;;;;21218799;27;20412;-54
2022/05/26 00:35:25;;;;;;;7.78;1.90;;;11.30;99.90;;;;;;21179704;27;20032;-53
2022/05/26 00:45:38;;;;;;;5.00;2.00;;;11.30;99.90;;;;;;21161875;27;20147;-54
2022/05/26 00:55:47;;;;;;;6.60;1.92;;;11.20;99.90;;;;;;21154982;27;20061;-54
2022/05/26 01:06:02;;;;;;;5.03;2.23;;;11.20;99.90;;;;;;21153817;27;20032;-54
2022/05/26 01:16:13;;;;;;;5.47;1.80;;;11.00;99.90;;;;;;21157181;27;20035;-55
2022/05/26 01:26:53;;;;;;;3.72;2.47;;;10.90;99.90;;;;;;21164842;27;20084;-59
2022/05/26 01:37:02;;;;;;;;;;;11.00;99.90;;;;;;21201878;27;20039;-54
2022/05/26 01:47:33;;;;;;;6.03;2.20;;;11.00;99.90;;;;;;21199679;27;19968;-55
2022/05/26 01:57:48;;;;;;;5.93;2.30;;;10.70;99.90;;;;;;21155068;27;20051;-56
2022/05/26 02:08:09;;;;;;;5.10;2.53;;;10.80;99.90;;;;;;21163255;27;20039;-55
2022/05/26 02:18:41;;;;;;;4.32;2.20;;;10.70;99.90;;;;;;21208487;27;20088;-54
2022/05/26 02:39:07;;;;;;;8.40;3.20;;;10.60;99.90;;;;;;21148934;27;20040;-55
2022/05/26 02:49:49;;;;;;;7.25;3.13;;;10.70;99.90;;;;;;21166829;27;20394;-52
2022/05/26 03:00:06;;;;;;;5.65;3.40;;;10.70;99.90;;;;;;21185544;27;20031;-54
2022/05/26 03:10:11;;;;;;;7.53;3.78;;;10.70;99.90;;;;;;21140005;27;20035;-55
2022/05/26 03:20:14;;;;;;;5.30;3.78;;;10.90;99.90;;;;;;21164923;28;20092;-59
2022/05/26 03:30:16;;;;;;;7.30;3.55;;;10.90;99.90;;;;;;21162835;28;20502;-54
2022/05/26 03:50:40;;;;;;;10.00;3.33;;;10.80;99.90;;;;;;21218220;27;20043;-60
2022/05/26 04:00:43;;;;;;;10.98;3.70;;;10.90;99.90;;;;;;21145604;27;20032;-60
2022/05/26 04:10:46;;;;;;;9.07;3.63;;;10.80;99.90;;;;;;21219563;27;20091;-60
2022/05/26 04:20:48;;;;;;;6.35;3.83;;;10.90;99.90;;;;;;21220498;27;20059;-50
2022/05/26 04:30:51;;;;;;;10.02;4.38;;;11.10;99.90;;;;;;21155663;28;20104;-60
2022/05/26 04:41:05;;;;;;;6.95;3.80;;;11.40;99.90;;;;;;21219380;27;20369;-59
2022/05/26 04:51:07;;;;;;;5.45;3.38;;;11.60;99.90;;;;;;21204300;27;20085;-56
2022/05/26 05:01:15;;;;;;;8.23;2.97;;;11.60;99.90;;;;;;21214068;27;20027;-54
2022/05/26 05:11:19;;;;;;;4.38;2.03;;;11.70;99.90;;;;;;21207676;27;20035;-55
2022/05/26 05:21:32;;;;;;;4.43;1.92;;;12.20;99.90;;;;;;21211579;27;20131;-59
2022/05/26 05:31:40;;;;;;;;;;;12.30;99.90;;;;;;21219766;27;20052;-54
2022/05/26 05:41:44;;;;;;;3.10;1.70;;;12.40;99.90;;;;;;21202433;27;19915;-54
2022/05/26 05:51:46;;;;;;;5.32;1.83;;;12.70;99.90;;;;;;21125918;28;20056;-62
2022/05/26 06:01:48;;;;;;;1.27;1.08;;;13.10;99.90;;;;;;21088089;28;20520;-55
2022/05/26 06:11:51;;;;;;;4.03;1.08;;;13.80;99.90;;;;;;21105985;28;20031;-54
2022/05/26 06:21:54;;;;;;;2.88;1.10;;;15.60;99.90;;;;;;21132156;28;20035;-55
2022/05/26 06:42:18;;;;;;;1.92;1.00;;;23.20;99.90;;;;;;21100854;28;20480;-61
2022/05/26 06:52:24;;;;;;;1.67;0.95;;;25.30;96.30;;;;;;21185259;27;20453;-56
2022/05/26 07:02:27;;;;;;;2.55;1.25;;;25.90;92.60;;;;;;21142584;27;20042;-61
2022/05/26 07:12:30;;;;;;;4.07;1.83;;;26.60;90.90;;;;;;21144875;28;20084;-56
2022/05/26 07:22:33;;;;;;;4.63;3.20;;;26.10;90.50;;;;;;21133889;28;20035;-61
2022/05/26 07:32:36;;;;;;;3.30;2.22;;;26.60;90.10;;;;;;21174444;28;20553;-60
2022/05/26 07:42:39;;;;;;;4.43;2.90;;;25.30;91.70;;;;;;21317816;22;20085;-63
2022/05/26 07:52:42;;;;;;;3.85;2.60;;;24.80;92.60;;;;;;21024124;28;20032;-63
2022/05/26 08:02:45;;;;;;;4.55;2.10;;;25.40;92.50;;;;;;21031190;28;20401;-64
2022/05/26 08:12:48;;;;;;;8.25;3.50;;;25.20;92.70;;;;;;21039556;28;20048;-64
2022/05/26 08:22:51;;;;;;;4.20;2.88;;;25.70;91.50;;;;;;21053977;28;20036;-64
2022/05/26 08:32:55;;;;;;;8.27;3.20;;;25.50;91.80;;;;;;21038771;28;20032;-64
2022/05/26 08:42:57;;;;;;;5.10;2.65;;;25.00;93.30;;;;;;21047516;28;20048;-64
2022/05/26 08:53:11;;;;;;;5.00;3.03;;;25.90;92.70;;;;;;21053905;28;20066;-64
2022/05/26 09:03:26;;;;;;;5.07;3.28;;;25.80;92.10;;;;;;21055713;28;20561;-54
2022/05/26 09:13:30;;;;;;;5.72;4.00;;;24.30;93.60;;;;;;21054798;28;20384;-61
2022/05/26 09:23:33;;;;;;;5.10;3.92;;;22.50;95.80;;;;;;21061041;28;20040;-53
2022/05/26 09:33:36;;;;;;;8.13;4.68;;;22.10;96.60;;;;;;21059174;28;20036;-63
2022/05/26 09:43:46;;;;;;;6.10;3.75;;;22.00;96.30;;;;;;21056405;28;20397;-63
2022/05/26 09:53:53;;;;;;;5.45;3.40;;;22.90;97.00;;;;;;21066753;28;20464;-63
2022/05/26 10:04:20;;;;;;;6.63;3.78;;;23.50;97.10;;;;;;21023410;28;20058;-63
2022/05/26 10:14:38;;;;;;;7.97;6.15;;;23.50;96.80;;;;;;21037068;28;20036;-52
2022/05/26 10:24:52;;;;;;;;;;;22.30;95.90;;;;;;21059205;28;20040;-61
2022/05/26 10:35:18;;;;;;;6.85;3.72;;;22.30;97.90;;;;;;21046574;28;19908;-60
2022/05/26 10:45:34;;;;;;;7.60;4.38;;;21.60;98.50;;;;;;21032965;28;20469;-54
2022/05/26 10:55:49;;;;;;;6.70;4.25;;;20.60;99.90;;;;;;21028501;28;20357;-54
2022/05/26 11:05:59;;;;;;;8.73;4.13;;;20.70;99.90;;;;;;21032540;28;20040;-57
2022/05/26 11:27:03;;;;;;;11.88;8.05;;;25.90;97.80;;;;;;21030258;28;20037;-64
2022/05/26 11:37:15;;;;;;;11.98;8.75;;;27.30;95.50;;;;;;21029098;28;20044;-57
2022/05/26 11:47:46;;;;;;;14.48;10.23;;;26.90;96.00;;;;;;21034084;28;20189;-63
2022/05/26 11:57:53;;;;;;;18.17;11.27;;;25.70;96.50;;;;;;21050759;28;20032;-62
2022/05/26 12:08:06;;;;;;;18.50;10.63;;;24.70;96.80;;;;;;21039525;28;20401;-63
2022/05/26 12:18:19;;;;;;;13.52;9.45;;;24.60;97.90;;;;;;21047097;28;20169;-63
2022/05/26 12:28:29;;;;;;;17.13;9.57;;;25.40;98.20;;;;;;21044856;28;20040;-63
2022/05/26 12:38:45;;;;;;;13.98;7.97;;;26.10;97.80;;;;;;21040907;28;20485;-57
2022/05/26 12:49:18;;;;;;;14.10;10.80;;;26.50;95.70;;;;;;21045653;28;20044;-62
2022/05/26 12:59:25;;;;;;;18.05;12.75;;;24.90;96.80;;;;;;21053599;28;20086;-61
2022/05/26 13:09:31;;;;;;;22.48;11.85;;;23.00;99.50;;;;;;21080579;28;20040;-61
2022/05/26 13:19:42;;;;;;;15.00;9.60;;;23.30;99.80;;;;;;21054970;28;20105;-54
2022/05/26 13:29:49;;;;;;;21.08;14.15;;;22.60;99.90;;;;;;21043626;28;20663;-53
2022/05/26 13:40:05;;;;;;;20.75;15.05;;;21.60;99.90;;;;;;21061004;28;20048;-60
2022/05/26 13:50:10;;;;;;;21.65;14.00;;;20.80;99.90;;;;;;21076404;28;20088;-54
2022/05/26 14:00:16;;;;;;;21.75;13.43;;;20.50;99.90;;;;;;21088458;28;20415;-52
2022/05/26 14:10:29;;;;;;;16.58;11.43;;;20.90;99.90;;;;;;21093058;28;20036;-61
2022/05/26 14:20:31;;;;;;;17.10;11.00;;;21.40;99.90;;;;;;21074394;28;20027;-61
2022/05/26 14:30:50;;;;;;;21.77;12.05;;;21.60;99.90;;;;;;21089045;28;20427;-54
2022/05/26 14:40:54;;;;;;;15.65;10.60;;;21.80;99.90;;;;;;21044132;28;20053;-61
2022/05/26 14:50:57;;;;;;;19.65;11.65;;;22.00;99.90;;;;;;21044305;28;20043;-62
2022/05/26 15:01:00;;;;;;;16.95;10.30;;;21.90;99.90;;;;;;21037820;28;20028;-61
2022/05/26 15:11:03;;;;;;;14.52;11.77;;;21.50;99.90;;;;;;21051529;28;20040;-60
2022/05/26 15:21:06;;;;;;;18.38;10.77;;;21.00;99.90;;;;;;21034514;28;20028;-61
2022/05/26 15:31:09;;;;;;;14.27;10.10;;;21.20;99.90;;;;;;21042295;28;20439;-54
2022/05/26 15:41:13;;;;;;;16.75;9.90;;;21.40;99.90;;;;;;21050485;28;20052;-55
2022/05/26 15:51:16;;;;;;;17.67;10.88;;;20.80;99.90;;;;;;21061120;28;20089;-63
2022/05/26 16:01:19;;;;;;;16.35;11.35;;;20.20;99.90;;;;;;21065049;28;20132;-60
2022/05/26 16:11:22;;;;;;;18.33;12.73;;;20.00;99.90;;;;;;21058970;28;20389;-54
2022/05/26 16:21:26;;;;;;;20.50;12.20;;;20.00;99.90;;;;;;21059911;28;20489;-60
2022/05/26 16:31:28;;;;;;;14.85;10.73;;;20.10;99.90;;;;;;21052243;28;20043;-59
2022/05/26 16:41:31;;;;;;;18.15;10.82;;;19.90;99.90;;;;;;21055843;28;20121;-59
2022/05/26 16:51:44;;;;;;;18.95;11.50;;;19.50;99.90;;;;;;21060822;28;20036;-59
2022/05/26 17:01:48;;;;;;;21.15;10.70;;;19.20;99.90;;;;;;21083325;28;20040;-59
2022/05/26 17:11:51;;;;;;;26.17;13.00;;;19.00;99.90;;;;;;21071175;28;20036;-59
2022/05/26 17:21:58;;;;;;;24.02;12.85;;;18.70;99.90;;;;;;21070135;28;20044;-59
2022/05/26 17:32:00;;;;;;;23.00;15.35;;;18.50;99.90;;;;;;21052167;28;20031;-54
2022/05/26 17:42:04;;;;;;;23.17;15.60;;;18.30;99.90;;;;;;21055589;28;20047;-58
2022/05/26 17:52:13;;;;;;;25.42;15.95;;;17.90;99.90;;;;;;21034270;28;20040;-59
2022/05/26 18:02:18;;;;;;;22.73;15.23;;;17.70;99.90;;;;;;21049584;28;20039;-59
2022/05/26 18:12:22;;;;;;;28.20;15.82;;;17.30;99.90;;;;;;21039970;28;20032;-53
2022/05/26 18:22:44;;;;;;;27.63;17.10;;;17.10;99.90;;;;;;21030810;28;20092;-59
2022/05/26 18:32:49;;;;;;;30.05;18.73;;;16.80;99.90;;;;;;21038615;28;20085;-59
2022/05/26 18:42:52;;;;;;;26.83;17.83;;;16.60;99.90;;;;;;21044284;28;20078;-59
2022/05/26 18:52:55;;;;;;;25.95;17.58;;;16.40;99.90;;;;;;21046341;28;20090;-59
2022/05/26 19:02:58;;;;;;;28.13;16.83;;;16.10;99.90;;;;;;21062030;28;20040;-59
2022/05/26 19:13:01;;;;;;;29.98;17.02;;;15.70;99.90;;;;;;21061980;28;20036;-59
2022/05/26 19:23:05;;;;;;;24.27;14.48;;;15.00;99.90;;;;;;21052635;28;20070;-57
2022/05/26 19:33:08;;;;;;;23.20;13.90;;;14.40;99.90;;;;;;21060743;28;20393;-59
2022/05/26 19:43:23;;;;;;;21.75;12.13;;;14.10;99.90;;;;;;21055803;28;20048;-59
2022/05/26 19:53:27;;;;;;;21.17;12.73;;;14.10;99.90;;;;;;21060318;28;20097;-59
2022/05/26 20:03:30;;;;;;;22.50;13.38;;;14.40;99.90;;;;;;21043063;28;20074;-59
2022/05/26 20:13:35;;;;;;;22.33;14.52;;;14.20;99.90;;;;;;21042415;28;20097;-59
2022/05/26 20:23:40;;;;;;;33.55;19.88;;;13.80;99.90;;;;;;21059278;28;20066;-59
2022/05/26 20:33:42;;;;;;;26.90;19.05;;;13.50;99.90;;;;;;21075309;28;20066;-59
2022/05/26 20:43:45;;;;;;;33.30;17.58;;;13.60;99.90;;;;;;21072555;28;20047;-59
2022/05/26 20:53:48;;;;;;;29.80;17.25;;;13.60;99.90;;;;;;21061789;28;20040;-59
2022/05/26 21:03:50;;;;;;;28.65;16.48;;;13.60;99.90;;;;;;21069183;28;20036;-59
2022/05/26 21:13:53;;;;;;;32.05;18.27;;;13.80;99.90;;;;;;21070562;28;20044;-58
2022/05/26 21:23:56;;;;;;;35.55;20.70;;;13.80;99.90;;;;;;21052798;28;20066;-52
2022/05/26 21:33:59;;;;;;;43.00;23.92;;;13.50;99.90;;;;;;21069268;28;20116;-58
2022/05/26 21:44:03;;;;;;;45.35;26.30;;;13.20;99.90;;;;;;21059295;28;20070;-59
2022/05/26 21:54:12;;;;;;;39.08;23.35;;;13.10;99.90;;;;;;21050493;28;20035;-58
2022/05/26 22:04:22;;;;;;;34.38;20.73;;;13.10;99.90;;;;;;21033345;28;20036;-58
2022/05/26 22:14:27;;;;;;;33.65;18.75;;;13.00;99.90;;;;;;21049866;28;20097;-58
2022/05/26 22:24:31;;;;;;;33.70;18.30;;;12.70;99.90;;;;;;21053143;28;20172;-58
2022/05/26 22:45:03;;;;;;;42.63;23.60;;;12.30;99.90;;;;;;20959324;28;20120;-58
2022/05/26 22:55:06;;;;;;;37.60;20.60;;;12.30;99.90;;;;;;20962627;28;20041;-58
2022/05/26 23:05:10;;;;;;;37.33;22.38;;;12.30;99.90;;;;;;20953403;28;20397;-57
2022/05/26 23:15:13;;;;;;;34.35;20.55;;;12.30;99.90;;;;;;20957956;28;20106;-58
2022/05/26 23:25:29;;;;;;;45.75;21.15;;;12.20;99.90;;;;;;20721307;28;20491;-58
2022/05/26 23:35:32;;;;;;;54.03;27.15;;;12.10;99.90;;;;;;20724488;28;20045;-58
2022/05/26 23:45:44;;;;;;;44.25;24.33;;;12.00;99.90;;;;;;20814281;28;20093;-58
